sensor_id;sensor_type;location;lat;lon;timestamp;pressure;altitude;pressure_sealevel;temperature;humidity
31239;BME280;17871;31.584;74.450;2022-07-23T00:01:00;97652.19;;;30.71;100.00
31239;BME280;17871;31.584;74.450;2022-07-23T00:03:29;97651.91;;;30.74;100.00
31239;BME280;17871;31.584;74.450;2022-07-23T00:05:58;97657.31;;;30.73;100.00
31239;BME280;17871;31.584;74.450;2022-07-23T00:08:29;97661.78;;;30.72;100.00
31239;BME280;17871;31.584;74.450;2022-07-23T00:10:58;97657.47;;;30.71;100.00
31239;BME280;17871;31.584;74.450;2022-07-23T00:13:27;97659.00;;;30.74;100.00
31239;BME280;17871;31.584;74.450;2022-07-23T00:15:56;97671.22;;;30.75;100.00
31239;BME280;17871;31.584;74.450;2022-07-23T00:18:25;97668.53;;;30.65;100.00
31239;BME280;17871;31.584;74.450;2022-07-23T00:20:54;97671.03;;;30.67;100.00
31239;BME280;17871;31.584;74.450;2022-07-23T00:23:24;97668.97;;;30.70;100.00
31239;BME280;17871;31.584;74.450;2022-07-23T00:25:53;97681.88;;;30.73;100.00
31239;BME280;17871;31.584;74.450;2022-07-23T00:28:22;97685.25;;;30.75;100.00
31239;BME280;17871;31.584;74.450;2022-07-23T00:30:51;97691.34;;;30.76;100.00
31239;BME280;17871;31.584;74.450;2022-07-23T00:33:21;97691.59;;;30.73;100.00
31239;BME280;17871;31.584;74.450;2022-07-23T00:35:50;97692.91;;;30.78;100.00
31239;BME280;17871;31.584;74.450;2022-07-23T00:38:20;97704.31;;;30.79;100.00
31239;BME280;17871;31.584;74.450;2022-07-23T00:40:49;97702.19;;;30.82;100.00
31239;BME280;17871;31.584;74.450;2022-07-23T00:43:20;97703.09;;;30.93;100.00
31239;BME280;17871;31.584;74.450;2022-07-23T00:45:50;97704.59;;;30.85;100.00
31239;BME280;17871;31.584;74.450;2022-07-23T00:48:20;97707.25;;;30.85;100.00
31239;BME280;17871;31.584;74.450;2022-07-23T00:50:49;97706.13;;;30.88;100.00
31239;BME280;17871;31.584;74.450;2022-07-23T00:53:19;97706.97;;;30.88;100.00
31239;BME280;17871;31.584;74.450;2022-07-23T00:55:49;97713.78;;;30.91;100.00
31239;BME280;17871;31.584;74.450;2022-07-23T00:58:18;97714.91;;;30.88;100.00
31239;BME280;17871;31.584;74.450;2022-07-23T01:00:47;97713.22;;;30.87;100.00
31239;BME280;17871;31.584;74.450;2022-07-23T01:03:17;97722.16;;;30.96;100.00
31239;BME280;17871;31.584;74.450;2022-07-23T01:05:46;97715.81;;;30.99;100.00
31239;BME280;17871;31.584;74.450;2022-07-23T01:08:16;97720.09;;;31.00;100.00
31239;BME280;17871;31.584;74.450;2022-07-23T01:10:49;97721.25;;;31.07;100.00
31239;BME280;17871;31.584;74.450;2022-07-23T01:13:20;97720.13;;;31.09;100.00
31239;BME280;17871;31.584;74.450;2022-07-23T01:15:49;97724.84;;;31.06;100.00
31239;BME280;17871;31.584;74.450;2022-07-23T01:18:18;97728.22;;;31.08;100.00
31239;BME280;17871;31.584;74.450;2022-07-23T01:20:48;97733.03;;;31.03;100.00
31239;BME280;17871;31.584;74.450;2022-07-23T01:23:18;97731.53;;;31.10;100.00
31239;BME280;17871;31.584;74.450;2022-07-23T01:25:53;97736.28;;;31.16;100.00
31239;BME280;17871;31.584;74.450;2022-07-23T01:28:24;97742.41;;;31.16;100.00
31239;BME280;17871;31.584;74.450;2022-07-23T01:30:56;97747.56;;;31.18;100.00
31239;BME280;17871;31.584;74.450;2022-07-23T01:33:30;97752.09;;;31.06;100.00
31239;BME280;17871;31.584;74.450;2022-07-23T01:35:59;97755.47;;;31.18;100.00
31239;BME280;17871;31.584;74.450;2022-07-23T01:38:29;97755.22;;;31.21;100.00
31239;BME280;17871;31.584;74.450;2022-07-23T01:40:58;97763.13;;;31.21;100.00
31239;BME280;17871;31.584;74.450;2022-07-23T01:43:30;97767.69;;;31.19;100.00
31239;BME280;17871;31.584;74.450;2022-07-23T01:45:59;97772.47;;;31.25;100.00
31239;BME280;17871;31.584;74.450;2022-07-23T01:48:35;97779.66;;;31.23;100.00
31239;BME280;17871;31.584;74.450;2022-07-23T01:51:22;97776.75;;;31.26;100.00
31239;BME280;17871;31.584;74.450;2022-07-23T01:54:12;97771.78;;;31.32;100.00
31239;BME280;17871;31.584;74.450;2022-07-23T01:56:41;97774.16;;;31.35;100.00
31239;BME280;17871;31.584;74.450;2022-07-23T01:59:11;97767.81;;;31.48;100.00
31239;BME280;17871;31.584;74.450;2022-07-23T02:01:40;97772.53;;;31.44;100.00
31239;BME280;17871;31.584;74.450;2022-07-23T02:04:09;97767.38;;;31.43;100.00
31239;BME280;17871;31.584;74.450;2022-07-23T02:06:38;97766.59;;;31.52;100.00
31239;BME280;17871;31.584;74.450;2022-07-23T02:09:09;97775.25;;;31.63;100.00
31239;BME280;17871;31.584;74.450;2022-07-23T02:11:38;97773.75;;;31.70;100.00
31239;BME280;17871;31.584;74.450;2022-07-23T02:14:08;97777.94;;;31.82;100.00
31239;BME280;17871;31.584;74.450;2022-07-23T02:16:37;97772.81;;;31.91;100.00
31239;BME280;17871;31.584;74.450;2022-07-23T02:19:06;97769.34;;;32.00;100.00
31239;BME280;17871;31.584;74.450;2022-07-23T02:21:36;97775.22;;;32.13;100.00
31239;BME280;17871;31.584;74.450;2022-07-23T02:24:06;97777.72;;;32.14;100.00
31239;BME280;17871;31.584;74.450;2022-07-23T02:26:37;97774.41;;;32.22;100.00
31239;BME280;17871;31.584;74.450;2022-07-23T02:29:08;97770.34;;;32.27;100.00
31239;BME280;17871;31.584;74.450;2022-07-23T02:31:37;97771.91;;;32.39;100.00
31239;BME280;17871;31.584;74.450;2022-07-23T02:34:08;97777.31;;;32.38;100.00
31239;BME280;17871;31.584;74.450;2022-07-23T02:36:40;97771.63;;;32.43;100.00
31239;BME280;17871;31.584;74.450;2022-07-23T02:39:10;97780.50;;;32.42;100.00
31239;BME280;17871;31.584;74.450;2022-07-23T02:41:39;97775.22;;;32.51;100.00
31239;BME280;17871;31.584;74.450;2022-07-23T02:44:08;97778.31;;;32.37;100.00
31239;BME280;17871;31.584;74.450;2022-07-23T02:46:37;97783.59;;;32.37;100.00
31239;BME280;17871;31.584;74.450;2022-07-23T02:49:06;97777.19;;;32.49;100.00
31239;BME280;17871;31.584;74.450;2022-07-23T02:51:36;97781.22;;;32.53;100.00
31239;BME280;17871;31.584;74.450;2022-07-23T02:54:06;97786.38;;;32.64;100.00
31239;BME280;17871;31.584;74.450;2022-07-23T02:56:35;97791.09;;;32.70;100.00
31239;BME280;17871;31.584;74.450;2022-07-23T02:59:05;97787.75;;;32.68;100.00
31239;BME280;17871;31.584;74.450;2022-07-23T03:01:34;97793.59;;;32.81;100.00
31239;BME280;17871;31.584;74.450;2022-07-23T03:04:03;97796.66;;;32.77;100.00
31239;BME280;17871;31.584;74.450;2022-07-23T03:06:33;97791.91;;;32.80;100.00
31239;BME280;17871;31.584;74.450;2022-07-23T03:09:05;97796.66;;;32.77;100.00
31239;BME280;17871;31.584;74.450;2022-07-23T03:11:38;97801.00;;;32.68;100.00
31239;BME280;17871;31.584;74.450;2022-07-23T03:14:07;97805.03;;;32.72;100.00
31239;BME280;17871;31.584;74.450;2022-07-23T03:16:37;97808.50;;;32.82;100.00
31239;BME280;17871;31.584;74.450;2022-07-23T03:19:06;97800.72;;;32.71;100.00
31239;BME280;17871;31.584;74.450;2022-07-23T03:21:36;97800.00;;;32.79;100.00
31239;BME280;17871;31.584;74.450;2022-07-23T03:24:09;97803.59;;;32.87;100.00
31239;BME280;17871;31.584;74.450;2022-07-23T03:26:39;97808.31;;;32.94;100.00
31239;BME280;17871;31.584;74.450;2022-07-23T03:29:08;97813.50;;;32.95;100.00
31239;BME280;17871;31.584;74.450;2022-07-23T03:31:37;97812.25;;;32.89;100.00
31239;BME280;17871;31.584;74.450;2022-07-23T03:34:07;97805.00;;;32.92;100.00
31239;BME280;17871;31.584;74.450;2022-07-23T03:36:36;97802.75;;;32.97;100.00
31239;BME280;17871;31.584;74.450;2022-07-23T03:39:07;97798.25;;;33.07;100.00
31239;BME280;17871;31.584;74.450;2022-07-23T03:41:40;97812.22;;;33.09;100.00
31239;BME280;17871;31.584;74.450;2022-07-23T03:44:10;97806.78;;;33.10;100.00
31239;BME280;17871;31.584;74.450;2022-07-23T03:46:42;97824.47;;;33.10;100.00
31239;BME280;17871;31.584;74.450;2022-07-23T03:49:11;97828.38;;;33.06;100.00
31239;BME280;17871;31.584;74.450;2022-07-23T03:51:40;97831.72;;;33.08;100.00
31239;BME280;17871;31.584;74.450;2022-07-23T03:54:09;97830.03;;;33.07;100.00
31239;BME280;17871;31.584;74.450;2022-07-23T03:56:39;97829.47;;;33.03;100.00
31239;BME280;17871;31.584;74.450;2022-07-23T03:59:09;97843.44;;;33.15;100.00
31239;BME280;17871;31.584;74.450;2022-07-23T04:01:39;97844.53;;;33.22;100.00
31239;BME280;17871;31.584;74.450;2022-07-23T04:04:09;97843.66;;;33.31;100.00
31239;BME280;17871;31.584;74.450;2022-07-23T04:06:40;97855.72;;;33.16;100.00
31239;BME280;17871;31.584;74.450;2022-07-23T04:09:10;97859.28;;;33.34;100.00
31239;BME280;17871;31.584;74.450;2022-07-23T04:11:39;97866.66;;;33.40;100.00
31239;BME280;17871;31.584;74.450;2022-07-23T04:14:08;97867.66;;;33.20;100.00
31239;BME280;17871;31.584;74.450;2022-07-23T04:16:37;97870.19;;;33.21;100.00
31239;BME280;17871;31.584;74.450;2022-07-23T04:19:07;97873.09;;;33.28;100.00
31239;BME280;17871;31.584;74.450;2022-07-23T04:21:49;97873.78;;;33.30;100.00
31239;BME280;17871;31.584;74.450;2022-07-23T04:24:18;97865.03;;;33.29;100.00
31239;BME280;17871;31.584;74.450;2022-07-23T04:26:47;97859.28;;;33.34;100.00
31239;BME280;17871;31.584;74.450;2022-07-23T04:29:16;97867.66;;;33.39;100.00
31239;BME280;17871;31.584;74.450;2022-07-23T04:31:46;97867.34;;;33.42;100.00
31239;BME280;17871;31.584;74.450;2022-07-23T04:34:15;97869.88;;;33.34;100.00
31239;BME280;17871;31.584;74.450;2022-07-23T04:36:45;97861.75;;;33.45;100.00
31239;BME280;17871;31.584;74.450;2022-07-23T04:39:14;97866.22;;;33.45;100.00
31239;BME280;17871;31.584;74.450;2022-07-23T04:41:43;97854.94;;;33.33;100.00
31239;BME280;17871;31.584;74.450;2022-07-23T04:44:13;97868.94;;;33.25;100.00
31239;BME280;17871;31.584;74.450;2022-07-23T04:46:43;97860.97;;;33.35;100.00
31239;BME280;17871;31.584;74.450;2022-07-23T04:49:14;97861.84;;;33.26;100.00
31239;BME280;17871;31.584;74.450;2022-07-23T04:51:46;97871.53;;;33.45;100.00
31239;BME280;17871;31.584;74.450;2022-07-23T04:54:15;97868.06;;;33.34;100.00
31239;BME280;17871;31.584;74.450;2022-07-23T04:56:46;97871.03;;;33.22;100.00
31239;BME280;17871;31.584;74.450;2022-07-23T04:59:15;97873.44;;;32.96;100.00
31239;BME280;17871;31.584;74.450;2022-07-23T05:01:47;97906.31;;;32.06;100.00
31239;BME280;17871;31.584;74.450;2022-07-23T05:04:18;97896.22;;;31.39;100.00
31239;BME280;17871;31.584;74.450;2022-07-23T05:06:48;97898.06;;;30.86;100.00
31239;BME280;17871;31.584;74.450;2022-07-23T05:09:17;97898.34;;;30.51;100.00
31239;BME280;17871;31.584;74.450;2022-07-23T05:11:46;97874.06;;;30.14;100.00
31239;BME280;17871;31.584;74.450;2022-07-23T05:14:16;97890.50;;;30.18;100.00
31239;BME280;17871;31.584;74.450;2022-07-23T05:16:46;97897.81;;;30.14;100.00
31239;BME280;17871;31.584;74.450;2022-07-23T05:19:21;97906.56;;;29.81;100.00
31239;BME280;17871;31.584;74.450;2022-07-23T05:21:52;97912.06;;;29.67;100.00
31239;BME280;17871;31.584;74.450;2022-07-23T05:24:22;97909.91;;;29.50;100.00
31239;BME280;17871;31.584;74.450;2022-07-23T05:26:52;97918.88;;;29.59;100.00
31239;BME280;17871;31.584;74.450;2022-07-23T05:29:22;97915.66;;;29.66;100.00
31239;BME280;17871;31.584;74.450;2022-07-23T05:31:51;97917.06;;;29.48;100.00
31239;BME280;17871;31.584;74.450;2022-07-23T05:34:21;97894.94;;;29.73;100.00
31239;BME280;17871;31.584;74.450;2022-07-23T05:36:50;97889.44;;;29.76;100.00
31239;BME280;17871;31.584;74.450;2022-07-23T05:39:20;97877.34;;;29.51;100.00
31239;BME280;17871;31.584;74.450;2022-07-23T05:41:50;97868.75;;;29.60;100.00
31239;BME280;17871;31.584;74.450;2022-07-23T05:44:19;97861.31;;;29.65;100.00
31239;BME280;17871;31.584;74.450;2022-07-23T05:46:49;97856.50;;;29.81;100.00
31239;BME280;17871;31.584;74.450;2022-07-23T05:49:23;97851.94;;;29.95;100.00
31239;BME280;17871;31.584;74.450;2022-07-23T05:52:27;97830.38;;;29.78;100.00
31239;BME280;17871;31.584;74.450;2022-07-23T05:55:15;97832.19;;;29.78;100.00
31239;BME280;17871;31.584;74.450;2022-07-23T05:57:44;97848.88;;;29.90;100.00
31239;BME280;17871;31.584;74.450;2022-07-23T06:00:14;97856.53;;;29.70;100.00
31239;BME280;17871;31.584;74.450;2022-07-23T06:02:46;97885.09;;;29.42;100.00
31239;BME280;17871;31.584;74.450;2022-07-23T06:05:23;97901.97;;;29.28;100.00
31239;BME280;17871;31.584;74.450;2022-07-23T06:07:55;97889.72;;;29.16;100.00
31239;BME280;17871;31.584;74.450;2022-07-23T06:10:26;97879.91;;;29.18;100.00
31239;BME280;17871;31.584;74.450;2022-07-23T06:12:55;97880.59;;;28.98;100.00
31239;BME280;17871;31.584;74.450;2022-07-23T06:15:29;97883.41;;;28.83;100.00
31239;BME280;17871;31.584;74.450;2022-07-23T06:17:59;97879.28;;;28.68;100.00
31239;BME280;17871;31.584;74.450;2022-07-23T06:20:28;97860.22;;;28.89;100.00
31239;BME280;17871;31.584;74.450;2022-07-23T06:22:58;97851.19;;;29.04;100.00
31239;BME280;17871;31.584;74.450;2022-07-23T06:25:28;97845.69;;;29.07;100.00
31239;BME280;17871;31.584;74.450;2022-07-23T06:27:57;97833.47;;;28.95;100.00
31239;BME280;17871;31.584;74.450;2022-07-23T06:30:26;97829.13;;;28.82;100.00
31239;BME280;17871;31.584;74.450;2022-07-23T06:32:55;97829.03;;;28.84;100.00
31239;BME280;17871;31.584;74.450;2022-07-23T06:35:25;97826.63;;;28.81;100.00
31239;BME280;17871;31.584;74.450;2022-07-23T06:37:55;97824.09;;;28.79;100.00
31239;BME280;17871;31.584;74.450;2022-07-23T06:40:24;97822.16;;;28.70;100.00
31239;BME280;17871;31.584;74.450;2022-07-23T06:42:53;97818.06;;;28.66;100.00
31239;BME280;17871;31.584;74.450;2022-07-23T06:45:22;97818.50;;;28.60;100.00
31239;BME280;17871;31.584;74.450;2022-07-23T06:47:53;97804.22;;;28.75;100.00
31239;BME280;17871;31.584;74.450;2022-07-23T06:50:22;97791.81;;;28.89;100.00
31239;BME280;17871;31.584;74.450;2022-07-23T06:52:51;97792.56;;;28.91;100.00
31239;BME280;17871;31.584;74.450;2022-07-23T06:55:20;97787.97;;;28.70;100.00
31239;BME280;17871;31.584;74.450;2022-07-23T06:57:49;97802.34;;;28.89;100.00
31239;BME280;17871;31.584;74.450;2022-07-23T07:00:18;97809.53;;;28.87;100.00
31239;BME280;17871;31.584;74.450;2022-07-23T07:02:48;97804.84;;;28.79;100.00
31239;BME280;17871;31.584;74.450;2022-07-23T07:05:17;97793.00;;;28.73;100.00
31239;BME280;17871;31.584;74.450;2022-07-23T07:07:46;97792.06;;;28.85;100.00
31239;BME280;17871;31.584;74.450;2022-07-23T07:10:17;97780.44;;;28.77;100.00
31239;BME280;17871;31.584;74.450;2022-07-23T07:12:47;97760.84;;;28.81;100.00
31239;BME280;17871;31.584;74.450;2022-07-23T07:15:16;97767.91;;;28.80;100.00
31239;BME280;17871;31.584;74.450;2022-07-23T07:17:45;97759.22;;;28.56;100.00
31239;BME280;17871;31.584;74.450;2022-07-23T07:20:16;97762.59;;;28.58;100.00
31239;BME280;17871;31.584;74.450;2022-07-23T07:22:45;97752.06;;;28.58;100.00
31239;BME280;17871;31.584;74.450;2022-07-23T07:25:14;97754.25;;;28.75;100.00
31239;BME280;17871;31.584;74.450;2022-07-23T07:27:43;97749.22;;;28.72;100.00
31239;BME280;17871;31.584;74.450;2022-07-23T07:30:13;97732.44;;;28.62;100.00
31239;BME280;17871;31.584;74.450;2022-07-23T07:32:42;97716.31;;;28.56;100.00
31239;BME280;17871;31.584;74.450;2022-07-23T07:35:27;97726.34;;;28.62;100.00
31239;BME280;17871;31.584;74.450;2022-07-23T07:37:56;97704.25;;;28.64;100.00
31239;BME280;17871;31.584;74.450;2022-07-23T07:40:26;97704.84;;;28.57;100.00
31239;BME280;17871;31.584;74.450;2022-07-23T07:43:00;97689.41;;;28.52;100.00
31239;BME280;17871;31.584;74.450;2022-07-23T07:45:32;97677.22;;;28.51;100.00
31239;BME280;17871;31.584;74.450;2022-07-23T07:48:01;97672.69;;;28.53;100.00
31239;BME280;17871;31.584;74.450;2022-07-23T07:50:30;97679.06;;;28.84;100.00
31239;BME280;17871;31.584;74.450;2022-07-23T07:53:00;97672.97;;;28.72;100.00
31239;BME280;17871;31.584;74.450;2022-07-23T07:55:30;97673.28;;;28.57;100.00
31239;BME280;17871;31.584;74.450;2022-07-23T07:58:00;97670.56;;;28.69;100.00
31239;BME280;17871;31.584;74.450;2022-07-23T08:00:30;97666.47;;;28.54;100.00
31239;BME280;17871;31.584;74.450;2022-07-23T08:03:00;97665.28;;;28.58;100.00
31239;BME280;17871;31.584;74.450;2022-07-23T08:05:30;97659.53;;;28.53;100.00
31239;BME280;17871;31.584;74.450;2022-07-23T08:08:00;97655.72;;;28.57;100.00
31239;BME280;17871;31.584;74.450;2022-07-23T08:10:30;97643.16;;;28.50;100.00
31239;BME280;17871;31.584;74.450;2022-07-23T08:13:00;97638.03;;;28.59;100.00
31239;BME280;17871;31.584;74.450;2022-07-23T08:15:30;97638.03;;;28.59;100.00
31239;BME280;17871;31.584;74.450;2022-07-23T08:18:00;97635.03;;;28.64;100.00
31239;BME280;17871;31.584;74.450;2022-07-23T08:20:30;97636.34;;;28.47;100.00
31239;BME280;17871;31.584;74.450;2022-07-23T08:23:03;97630.41;;;28.67;100.00
31239;BME280;17871;31.584;74.450;2022-07-23T08:25:38;97638.25;;;28.56;100.00
31239;BME280;17871;31.584;74.450;2022-07-23T08:28:11;97634.09;;;28.76;100.00
31239;BME280;17871;31.584;74.450;2022-07-23T08:30:43;97630.41;;;28.90;100.00
31239;BME280;17871;31.584;74.450;2022-07-23T08:33:15;97616.25;;;29.02;100.00
31239;BME280;17871;31.584;74.450;2022-07-23T08:35:59;97630.19;;;28.70;100.00
31239;BME280;17871;31.584;74.450;2022-07-23T08:38:28;97617.03;;;28.81;100.00
31239;BME280;17871;31.584;74.450;2022-07-23T08:40:57;97619.13;;;28.99;100.00
31239;BME280;17871;31.584;74.450;2022-07-23T08:43:29;97608.38;;;29.02;100.00
31239;BME280;17871;31.584;74.450;2022-07-23T08:46:00;97619.28;;;28.97;100.00
31239;BME280;17871;31.584;74.450;2022-07-23T08:48:31;97606.91;;;29.09;100.00
31239;BME280;17871;31.584;74.450;2022-07-23T08:51:02;97610.75;;;29.16;100.00
31239;BME280;17871;31.584;74.450;2022-07-23T08:53:34;97611.19;;;29.32;100.00
31239;BME280;17871;31.584;74.450;2022-07-23T08:56:08;97602.13;;;29.25;100.00
31239;BME280;17871;31.584;74.450;2022-07-23T08:58:37;97602.84;;;29.16;100.00
31239;BME280;17871;31.584;74.450;2022-07-23T09:01:06;97586.81;;;29.19;100.00
31239;BME280;17871;31.584;74.450;2022-07-23T09:03:36;97591.81;;;29.22;100.00
31239;BME280;17871;31.584;74.450;2022-07-23T09:06:07;97582.72;;;29.37;100.00
31239;BME280;17871;31.584;74.450;2022-07-23T09:08:37;97574.09;;;29.35;100.00
31239;BME280;17871;31.584;74.450;2022-07-23T09:11:09;97574.09;;;29.35;100.00
31239;BME280;17871;31.584;74.450;2022-07-23T09:13:52;97564.56;;;29.55;100.00
31239;BME280;17871;31.584;74.450;2022-07-23T09:16:30;97556.78;;;29.53;100.00
31239;BME280;17871;31.584;74.450;2022-07-23T09:19:04;97551.84;;;29.60;100.00
31239;BME280;17871;31.584;74.450;2022-07-23T09:21:35;97548.16;;;29.51;100.00
31239;BME280;17871;31.584;74.450;2022-07-23T09:24:07;97543.34;;;29.35;100.00
31239;BME280;17871;31.584;74.450;2022-07-23T09:29:15;97540.34;;;29.40;100.00
31239;BME280;17871;31.584;74.450;2022-07-23T09:31:59;97539.91;;;29.56;100.00
31239;BME280;17871;31.584;74.450;2022-07-23T09:34:32;97532.28;;;29.73;100.00
31239;BME280;17871;31.584;74.450;2022-07-23T09:37:19;97530.53;;;29.63;100.00
31239;BME280;17871;31.584;74.450;2022-07-23T09:39:48;97524.63;;;29.70;100.00
31239;BME280;17871;31.584;74.450;2022-07-23T09:42:23;97529.78;;;29.93;100.00
31239;BME280;17871;31.584;74.450;2022-07-23T09:44:55;97528.22;;;29.69;100.00
31239;BME280;17871;31.584;74.450;2022-07-23T09:47:29;97518.78;;;29.46;100.00
31239;BME280;17871;31.584;74.450;2022-07-23T09:52:33;97513.50;;;29.88;100.00
31239;BME280;17871;31.584;74.450;2022-07-23T09:55:05;97512.81;;;29.85;100.00
31239;BME280;17871;31.584;74.450;2022-07-23T09:57:35;97505.63;;;29.67;100.00
31239;BME280;17871;31.584;74.450;2022-07-23T10:00:07;97504.91;;;29.85;100.00
31239;BME280;17871;31.584;74.450;2022-07-23T10:02:39;97505.88;;;29.64;100.00
31239;BME280;17871;31.584;74.450;2022-07-23T10:05:27;97499.25;;;29.90;100.00
31239;BME280;17871;31.584;74.450;2022-07-23T10:08:18;97496.84;;;29.87;100.00
31239;BME280;17871;31.584;74.450;2022-07-23T10:11:09;97492.44;;;29.88;100.00
31239;BME280;17871;31.584;74.450;2022-07-23T10:13:58;97480.84;;;29.79;100.00
31239;BME280;17871;31.584;74.450;2022-07-23T10:16:53;97490.00;;;29.96;100.00
31239;BME280;17871;31.584;74.450;2022-07-23T10:19:23;97487.75;;;29.91;100.00
31239;BME280;17871;31.584;74.450;2022-07-23T10:21:56;97480.34;;;30.06;100.00
31239;BME280;17871;31.584;74.450;2022-07-23T10:29:57;97471.28;;;29.99;100.00
31239;BME280;17871;31.584;74.450;2022-07-23T10:32:49;97479.31;;;29.76;100.00
31239;BME280;17871;31.584;74.450;2022-07-23T10:35:54;97467.53;;;30.01;100.00
31239;BME280;17871;31.584;74.450;2022-07-23T10:38:33;97476.50;;;30.19;100.00
31239;BME280;17871;31.584;74.450;2022-07-23T10:41:05;97473.88;;;30.19;100.00
31239;BME280;17871;31.584;74.450;2022-07-23T10:43:35;97468.47;;;30.30;100.00
31239;BME280;17871;31.584;74.450;2022-07-23T10:46:23;97467.63;;;30.30;100.00
31239;BME280;17871;31.584;74.450;2022-07-23T10:49:38;97475.78;;;30.57;100.00
31239;BME280;17871;31.584;74.450;2022-07-23T10:52:26;97479.66;;;30.44;100.00
31239;BME280;17871;31.584;74.450;2022-07-23T10:57:27;97483.31;;;30.62;100.00
31239;BME280;17871;31.584;74.450;2022-07-23T11:02:37;97477.59;;;30.57;100.00
31239;BME280;17871;31.584;74.450;2022-07-23T11:05:10;97477.34;;;30.69;100.00
31239;BME280;17871;31.584;74.450;2022-07-23T11:10:44;97470.28;;;30.79;100.00
31239;BME280;17871;31.584;74.450;2022-07-23T11:13:26;97472.09;;;30.79;100.00
31239;BME280;17871;31.584;74.450;2022-07-23T11:18:55;97471.97;;;30.90;100.00
31239;BME280;17871;31.584;74.450;2022-07-23T11:32:29;97483.94;;;31.23;100.00
31239;BME280;17871;31.584;74.450;2022-07-23T11:35:00;97482.16;;;31.04;100.00
31239;BME280;17871;31.584;74.450;2022-07-23T11:37:40;97492.31;;;31.09;100.00
31239;BME280;17871;31.584;74.450;2022-07-23T11:40:12;97488.50;;;30.92;100.00
31239;BME280;17871;31.584;74.450;2022-07-23T11:43:07;97485.34;;;31.08;100.00
31239;BME280;17871;31.584;74.450;2022-07-23T11:45:41;97488.34;;;30.94;100.00
31239;BME280;17871;31.584;74.450;2022-07-23T11:48:22;97484.38;;;31.09;100.00
31239;BME280;17871;31.584;74.450;2022-07-23T11:50:53;97483.38;;;31.00;100.00
31239;BME280;17871;31.584;74.450;2022-07-23T11:53:27;97491.19;;;31.21;100.00
31239;BME280;17871;31.584;74.450;2022-07-23T11:58:34;97497.97;;;31.23;100.00
31239;BME280;17871;31.584;74.450;2022-07-23T12:01:04;97491.16;;;31.40;100.00
31239;BME280;17871;31.584;74.450;2022-07-23T12:03:52;97499.38;;;31.18;100.00
31239;BME280;17871;31.584;74.450;2022-07-23T12:06:21;97496.47;;;31.21;100.00
31239;BME280;17871;31.584;74.450;2022-07-23T12:08:50;97503.66;;;31.19;100.00
31239;BME280;17871;31.584;74.450;2022-07-23T12:11:20;97510.34;;;31.42;100.00
31239;BME280;17871;31.584;74.450;2022-07-23T12:13:58;97510.09;;;31.64;100.00
31239;BME280;17871;31.584;74.450;2022-07-23T12:16:28;97500.78;;;31.51;100.00
31239;BME280;17871;31.584;74.450;2022-07-23T12:18:57;97498.97;;;31.51;100.00
31239;BME280;17871;31.584;74.450;2022-07-23T12:21:27;97497.41;;;31.58;100.00
31239;BME280;17871;31.584;74.450;2022-07-23T12:24:06;97497.84;;;31.63;100.00
31239;BME280;17871;31.584;74.450;2022-07-23T12:26:35;97496.47;;;31.30;100.00
31239;BME280;17871;31.584;74.450;2022-07-23T12:29:06;97500.06;;;31.39;100.00
31239;BME280;17871;31.584;74.450;2022-07-23T12:31:35;97493.78;;;31.50;100.00
31239;BME280;17871;31.584;74.450;2022-07-23T12:34:14;97498.41;;;31.57;100.00
31239;BME280;17871;31.584;74.450;2022-07-23T12:36:44;97508.53;;;31.43;100.00
31239;BME280;17871;31.584;74.450;2022-07-23T12:39:32;97512.97;;;31.32;100.00
31239;BME280;17871;31.584;74.450;2022-07-23T12:42:01;97515.91;;;31.39;100.00
31239;BME280;17871;31.584;74.450;2022-07-23T12:44:30;97519.81;;;31.35;100.00
31239;BME280;17871;31.584;74.450;2022-07-23T12:47:06;97522.88;;;31.21;100.00
31239;BME280;17871;31.584;74.450;2022-07-23T12:49:36;97516.47;;;31.33;100.00
31239;BME280;17871;31.584;74.450;2022-07-23T12:52:16;97518.97;;;31.44;100.00
31239;BME280;17871;31.584;74.450;2022-07-23T12:54:46;97513.25;;;31.20;100.00
31239;BME280;17871;31.584;74.450;2022-07-23T12:57:15;97510.06;;;31.07;100.00
31239;BME280;17871;31.584;74.450;2022-07-23T12:59:45;97511.75;;;31.08;100.00
31239;BME280;17871;31.584;74.450;2022-07-23T13:02:15;97508.53;;;31.23;100.00
31239;BME280;17871;31.584;74.450;2022-07-23T13:04:48;97504.50;;;31.10;100.00
31239;BME280;17871;31.584;74.450;2022-07-23T13:07:17;97513.38;;;30.99;100.00
31239;BME280;17871;31.584;74.450;2022-07-23T13:09:48;97511.59;;;31.00;100.00
31239;BME280;17871;31.584;74.450;2022-07-23T13:12:17;97512.84;;;31.05;100.00
31239;BME280;17871;31.584;74.450;2022-07-23T13:14:47;97526.19;;;31.04;100.00
31239;BME280;17871;31.584;74.450;2022-07-23T13:17:17;97527.13;;;31.03;100.00
31239;BME280;17871;31.584;74.450;2022-07-23T13:19:47;97538.13;;;31.08;100.00
31239;BME280;17871;31.584;74.450;2022-07-23T13:22:16;97544.50;;;30.96;100.00
31239;BME280;17871;31.584;74.450;2022-07-23T13:24:46;97545.78;;;31.11;100.00
31239;BME280;17871;31.584;74.450;2022-07-23T13:27:16;97564.19;;;30.92;100.00
31239;BME280;17871;31.584;74.450;2022-07-23T13:29:46;97566.13;;;30.89;100.00
31239;BME280;17871;31.584;74.450;2022-07-23T13:32:16;97565.59;;;30.96;100.00
31239;BME280;17871;31.584;74.450;2022-07-23T13:34:46;97580.66;;;31.05;100.00
31239;BME280;17871;31.584;74.450;2022-07-23T13:37:17;97577.56;;;31.00;100.00
31239;BME280;17871;31.584;74.450;2022-07-23T13:39:47;97587.28;;;30.99;100.00